Página principal
METAR-TAF:

METAR-TAF

Aeroportos :

Akhiok, Alasca, Estados Unidos

latitude: 56-56-19N, longitude: 154-10-57W, altura: 13 m

Observação actual do tempo

O boletim foi feito há 46 minutos, às 19:56 UTC
Vento 8 kt de este
Temperatura 9°C
Humidade 93%
Pressão 1017 hPa
Visibilidade: 16.1 km
Nuvens fragmentadasa uma altura de 2100 ft
Nuvens fragmentadasa uma altura de 2600 ft
Encobertoa uma altura de 5000 ft
chuva fraca

METAR: PAKH 191956Z AUTO 08008KT 10SM -RA BKN021 BKN026 OVC050 09/08 A3004 RMK AO2 SLP172 P0000 T00890078

Hora: 12:42 (20:42 UTC)


TAF: em falta

Observações e previsões do tempo de mais de 4000 aeroportos (mensagens METAR e TAF).

As estações disponíveis são os pontos amarelos e vermelhos sobre o mapa.

Mova o rato sobre o mapa para ver o nome da estação.

Depois clique no ponto para visualizar as observações e previsões meteorológicas.

Para alterar o mapa : clique nos botões verdes com uma cruz preta para aumentar o zoom; no botão verde com uma pitada de zoom; ou nas setas verdes para mapas adjacentes.


METAR-TAF: